sensor_id;sensor_type;location;lat;lon;timestamp;P1;durP1;ratioP1;P2;durP2;ratioP2
32347;SDS011;18821;44.800;10.326;2023-06-24T00:00:06;9.30;;;5.40;;
32347;SDS011;18821;44.800;10.326;2023-06-24T00:02:34;8.60;;;5.50;;
32347;SDS011;18821;44.800;10.326;2023-06-24T00:05:02;7.13;;;5.45;;
32347;SDS011;18821;44.800;10.326;2023-06-24T00:07:29;7.68;;;5.13;;
32347;SDS011;18821;44.800;10.326;2023-06-24T00:09:55;8.10;;;5.60;;
32347;SDS011;18821;44.800;10.326;2023-06-24T00:12:21;13.13;;;6.03;;
32347;SDS011;18821;44.800;10.326;2023-06-24T00:14:47;10.50;;;5.65;;
32347;SDS011;18821;44.800;10.326;2023-06-24T00:17:14;9.60;;;5.40;;
32347;SDS011;18821;44.800;10.326;2023-06-24T00:19:41;15.38;;;6.18;;
32347;SDS011;18821;44.800;10.326;2023-06-24T00:22:09;10.38;;;5.40;;
32347;SDS011;18821;44.800;10.326;2023-06-24T00:24:35;9.90;;;6.07;;
32347;SDS011;18821;44.800;10.326;2023-06-24T00:27:01;8.60;;;5.95;;
32347;SDS011;18821;44.800;10.326;2023-06-24T00:29:27;14.05;;;6.78;;
32347;SDS011;18821;44.800;10.326;2023-06-24T00:31:53;12.73;;;6.47;;
32347;SDS011;18821;44.800;10.326;2023-06-24T00:34:19;7.65;;;5.07;;
32347;SDS011;18821;44.800;10.326;2023-06-24T00:36:45;11.73;;;6.10;;
32347;SDS011;18821;44.800;10.326;2023-06-24T00:39:12;10.77;;;5.78;;
32347;SDS011;18821;44.800;10.326;2023-06-24T00:41:38;9.23;;;5.85;;
32347;SDS011;18821;44.800;10.326;2023-06-24T00:44:04;8.45;;;5.63;;
32347;SDS011;18821;44.800;10.326;2023-06-24T00:46:30;11.35;;;6.28;;
32347;SDS011;18821;44.800;10.326;2023-06-24T00:48:59;12.65;;;6.10;;
32347;SDS011;18821;44.800;10.326;2023-06-24T00:51:28;13.48;;;6.68;;
32347;SDS011;18821;44.800;10.326;2023-06-24T00:53:59;12.48;;;5.82;;
32347;SDS011;18821;44.800;10.326;2023-06-24T00:56:27;12.98;;;5.78;;
32347;SDS011;18821;44.800;10.326;2023-06-24T00:58:59;11.63;;;6.05;;
32347;SDS011;18821;44.800;10.326;2023-06-24T01:01:30;15.90;;;6.70;;
32347;SDS011;18821;44.800;10.326;2023-06-24T01:03:59;12.95;;;6.93;;
32347;SDS011;18821;44.800;10.326;2023-06-24T01:06:26;9.43;;;5.85;;
32347;SDS011;18821;44.800;10.326;2023-06-24T01:08:56;8.60;;;6.07;;
32347;SDS011;18821;44.800;10.326;2023-06-24T01:11:28;15.27;;;6.95;;
32347;SDS011;18821;44.800;10.326;2023-06-24T01:13:55;10.55;;;5.82;;
32347;SDS011;18821;44.800;10.326;2023-06-24T01:16:25;9.82;;;6.63;;
32347;SDS011;18821;44.800;10.326;2023-06-24T01:18:59;16.17;;;6.47;;
32347;SDS011;18821;44.800;10.326;2023-06-24T01:22:01;10.98;;;6.13;;
32347;SDS011;18821;44.800;10.326;2023-06-24T01:27:19;11.32;;;6.90;;
32347;SDS011;18821;44.800;10.326;2023-06-24T01:30:17;10.20;;;6.43;;
32347;SDS011;18821;44.800;10.326;2023-06-24T01:35:42;7.63;;;5.55;;
32347;SDS011;18821;44.800;10.326;2023-06-24T01:38:19;11.90;;;6.10;;
32347;SDS011;18821;44.800;10.326;2023-06-24T01:40:50;8.80;;;5.82;;
32347;SDS011;18821;44.800;10.326;2023-06-24T01:43:17;10.05;;;5.97;;
32347;SDS011;18821;44.800;10.326;2023-06-24T01:45:48;14.77;;;7.20;;
32347;SDS011;18821;44.800;10.326;2023-06-24T01:48:22;13.27;;;6.93;;
32347;SDS011;18821;44.800;10.326;2023-06-24T01:50:57;13.70;;;6.45;;
32347;SDS011;18821;44.800;10.326;2023-06-24T01:53:26;13.55;;;7.50;;
32347;SDS011;18821;44.800;10.326;2023-06-24T01:55:55;14.77;;;7.50;;
32347;SDS011;18821;44.800;10.326;2023-06-24T01:58:24;13.57;;;7.45;;
32347;SDS011;18821;44.800;10.326;2023-06-24T02:00:51;13.02;;;8.85;;
32347;SDS011;18821;44.800;10.326;2023-06-24T02:03:17;14.57;;;9.48;;
32347;SDS011;18821;44.800;10.326;2023-06-24T02:05:44;15.45;;;9.10;;
32347;SDS011;18821;44.800;10.326;2023-06-24T02:08:13;16.08;;;9.48;;
32347;SDS011;18821;44.800;10.326;2023-06-24T02:10:39;14.50;;;8.85;;
32347;SDS011;18821;44.800;10.326;2023-06-24T02:13:07;12.63;;;9.02;;
32347;SDS011;18821;44.800;10.326;2023-06-24T02:15:35;13.18;;;9.30;;
32347;SDS011;18821;44.800;10.326;2023-06-24T02:18:05;14.35;;;9.25;;
32347;SDS011;18821;44.800;10.326;2023-06-24T02:20:34;17.10;;;8.98;;
32347;SDS011;18821;44.800;10.326;2023-06-24T02:23:04;21.30;;;8.48;;
32347;SDS011;18821;44.800;10.326;2023-06-24T02:25:33;13.82;;;8.73;;
32347;SDS011;18821;44.800;10.326;2023-06-24T02:28:01;14.52;;;8.15;;
32347;SDS011;18821;44.800;10.326;2023-06-24T02:30:28;16.65;;;8.13;;
32347;SDS011;18821;44.800;10.326;2023-06-24T02:32:54;17.23;;;7.60;;
32347;SDS011;18821;44.800;10.326;2023-06-24T02:35:20;17.70;;;8.23;;
32347;SDS011;18821;44.800;10.326;2023-06-24T02:37:46;10.07;;;7.43;;
32347;SDS011;18821;44.800;10.326;2023-06-24T02:40:15;14.02;;;7.53;;
32347;SDS011;18821;44.800;10.326;2023-06-24T02:42:41;15.10;;;7.10;;
32347;SDS011;18821;44.800;10.326;2023-06-24T02:45:07;15.05;;;7.50;;
32347;SDS011;18821;44.800;10.326;2023-06-24T02:47:35;13.02;;;7.97;;
32347;SDS011;18821;44.800;10.326;2023-06-24T02:50:03;15.93;;;7.75;;
32347;SDS011;18821;44.800;10.326;2023-06-24T02:52:32;13.80;;;7.70;;
32347;SDS011;18821;44.800;10.326;2023-06-24T02:55:02;11.02;;;6.88;;
32347;SDS011;18821;44.800;10.326;2023-06-24T02:57:46;14.50;;;6.85;;
32347;SDS011;18821;44.800;10.326;2023-06-24T03:00:39;10.02;;;6.93;;
32347;SDS011;18821;44.800;10.326;2023-06-24T03:03:08;9.50;;;6.65;;
32347;SDS011;18821;44.800;10.326;2023-06-24T03:05:40;13.45;;;6.57;;
32347;SDS011;18821;44.800;10.326;2023-06-24T03:08:10;13.02;;;6.40;;
32347;SDS011;18821;44.800;10.326;2023-06-24T03:10:37;9.77;;;6.70;;
32347;SDS011;18821;44.800;10.326;2023-06-24T03:13:05;13.07;;;6.85;;
32347;SDS011;18821;44.800;10.326;2023-06-24T03:15:41;11.98;;;6.65;;
32347;SDS011;18821;44.800;10.326;2023-06-24T03:18:07;9.95;;;6.65;;
32347;SDS011;18821;44.800;10.326;2023-06-24T03:20:33;10.77;;;6.68;;
32347;SDS011;18821;44.800;10.326;2023-06-24T03:23:06;18.48;;;7.35;;
32347;SDS011;18821;44.800;10.326;2023-06-24T03:25:33;10.88;;;6.78;;
32347;SDS011;18821;44.800;10.326;2023-06-24T03:28:00;11.60;;;7.38;;
32347;SDS011;18821;44.800;10.326;2023-06-24T03:30:29;14.32;;;7.75;;
32347;SDS011;18821;44.800;10.326;2023-06-24T03:32:57;8.95;;;6.53;;
32347;SDS011;18821;44.800;10.326;2023-06-24T03:35:23;10.15;;;6.50;;
32347;SDS011;18821;44.800;10.326;2023-06-24T03:37:49;12.73;;;7.22;;
32347;SDS011;18821;44.800;10.326;2023-06-24T03:40:15;11.68;;;7.00;;
32347;SDS011;18821;44.800;10.326;2023-06-24T03:42:42;11.68;;;7.38;;
32347;SDS011;18821;44.800;10.326;2023-06-24T03:45:08;9.38;;;6.30;;
32347;SDS011;18821;44.800;10.326;2023-06-24T03:47:34;15.98;;;7.45;;
32347;SDS011;18821;44.800;10.326;2023-06-24T03:50:00;11.45;;;7.80;;
32347;SDS011;18821;44.800;10.326;2023-06-24T03:52:26;12.70;;;7.38;;
32347;SDS011;18821;44.800;10.326;2023-06-24T03:54:52;11.52;;;6.40;;
32347;SDS011;18821;44.800;10.326;2023-06-24T03:57:18;13.45;;;7.10;;
32347;SDS011;18821;44.800;10.326;2023-06-24T03:59:44;10.65;;;6.63;;
32347;SDS011;18821;44.800;10.326;2023-06-24T04:02:10;10.07;;;6.55;;
32347;SDS011;18821;44.800;10.326;2023-06-24T04:04:38;13.52;;;6.68;;
32347;SDS011;18821;44.800;10.326;2023-06-24T04:07:05;12.27;;;6.85;;
32347;SDS011;18821;44.800;10.326;2023-06-24T04:09:34;13.07;;;7.55;;
32347;SDS011;18821;44.800;10.326;2023-06-24T04:12:03;12.70;;;7.25;;
32347;SDS011;18821;44.800;10.326;2023-06-24T04:14:33;13.13;;;6.50;;
32347;SDS011;18821;44.800;10.326;2023-06-24T04:16:59;14.98;;;7.60;;
32347;SDS011;18821;44.800;10.326;2023-06-24T04:19:25;11.75;;;7.13;;
32347;SDS011;18821;44.800;10.326;2023-06-24T04:21:51;11.98;;;7.07;;
32347;SDS011;18821;44.800;10.326;2023-06-24T04:24:17;14.85;;;6.95;;
32347;SDS011;18821;44.800;10.326;2023-06-24T04:26:43;12.27;;;6.60;;
32347;SDS011;18821;44.800;10.326;2023-06-24T04:29:09;13.52;;;7.30;;
32347;SDS011;18821;44.800;10.326;2023-06-24T04:31:37;12.20;;;6.72;;
32347;SDS011;18821;44.800;10.326;2023-06-24T04:34:03;13.65;;;7.10;;
32347;SDS011;18821;44.800;10.326;2023-06-24T04:36:30;14.25;;;6.82;;
32347;SDS011;18821;44.800;10.326;2023-06-24T04:38:56;27.95;;;6.95;;
32347;SDS011;18821;44.800;10.326;2023-06-24T04:41:23;9.30;;;6.35;;
32347;SDS011;18821;44.800;10.326;2023-06-24T04:43:49;12.43;;;6.65;;
32347;SDS011;18821;44.800;10.326;2023-06-24T04:46:15;11.32;;;6.60;;
32347;SDS011;18821;44.800;10.326;2023-06-24T04:48:41;12.50;;;7.03;;
32347;SDS011;18821;44.800;10.326;2023-06-24T04:51:07;11.68;;;7.10;;
32347;SDS011;18821;44.800;10.326;2023-06-24T04:53:33;10.88;;;6.95;;
32347;SDS011;18821;44.800;10.326;2023-06-24T04:55:59;10.15;;;6.65;;
32347;SDS011;18821;44.800;10.326;2023-06-24T04:58:25;13.20;;;6.97;;
32347;SDS011;18821;44.800;10.326;2023-06-24T05:00:50;14.18;;;7.13;;
32347;SDS011;18821;44.800;10.326;2023-06-24T05:03:17;14.85;;;7.00;;
32347;SDS011;18821;44.800;10.326;2023-06-24T05:05:43;19.02;;;7.47;;
32347;SDS011;18821;44.800;10.326;2023-06-24T05:08:08;16.75;;;6.40;;
32347;SDS011;18821;44.800;10.326;2023-06-24T05:10:34;9.45;;;6.78;;
32347;SDS011;18821;44.800;10.326;2023-06-24T05:13:00;12.77;;;7.28;;
32347;SDS011;18821;44.800;10.326;2023-06-24T05:15:26;13.98;;;7.28;;
32347;SDS011;18821;44.800;10.326;2023-06-24T05:17:52;9.75;;;6.50;;
32347;SDS011;18821;44.800;10.326;2023-06-24T05:20:18;11.55;;;7.00;;
32347;SDS011;18821;44.800;10.326;2023-06-24T05:22:44;11.40;;;7.07;;
32347;SDS011;18821;44.800;10.326;2023-06-24T05:25:10;13.30;;;7.32;;
32347;SDS011;18821;44.800;10.326;2023-06-24T05:27:36;10.95;;;7.13;;
32347;SDS011;18821;44.800;10.326;2023-06-24T05:30:02;12.75;;;6.75;;
32347;SDS011;18821;44.800;10.326;2023-06-24T05:32:28;12.10;;;6.38;;
32347;SDS011;18821;44.800;10.326;2023-06-24T05:34:54;9.27;;;6.18;;
32347;SDS011;18821;44.800;10.326;2023-06-24T05:37:19;11.32;;;6.22;;
32347;SDS011;18821;44.800;10.326;2023-06-24T05:39:45;8.88;;;6.18;;
32347;SDS011;18821;44.800;10.326;2023-06-24T05:42:11;10.82;;;6.63;;
32347;SDS011;18821;44.800;10.326;2023-06-24T05:44:37;12.25;;;7.07;;
32347;SDS011;18821;44.800;10.326;2023-06-24T05:47:03;12.23;;;6.95;;
32347;SDS011;18821;44.800;10.326;2023-06-24T05:49:29;15.95;;;7.00;;
32347;SDS011;18821;44.800;10.326;2023-06-24T05:51:55;11.75;;;6.35;;
32347;SDS011;18821;44.800;10.326;2023-06-24T05:54:21;13.73;;;6.95;;
32347;SDS011;18821;44.800;10.326;2023-06-24T05:56:47;10.43;;;6.53;;
32347;SDS011;18821;44.800;10.326;2023-06-24T05:59:13;9.82;;;6.28;;
32347;SDS011;18821;44.800;10.326;2023-06-24T06:01:39;33.22;;;7.22;;
32347;SDS011;18821;44.800;10.326;2023-06-24T06:04:05;19.92;;;6.82;;
32347;SDS011;18821;44.800;10.326;2023-06-24T06:06:31;10.93;;;5.90;;
32347;SDS011;18821;44.800;10.326;2023-06-24T06:08:57;10.05;;;5.85;;
32347;SDS011;18821;44.800;10.326;2023-06-24T06:11:24;14.43;;;6.10;;
32347;SDS011;18821;44.800;10.326;2023-06-24T06:13:50;10.27;;;6.63;;
32347;SDS011;18821;44.800;10.326;2023-06-24T06:16:17;12.13;;;5.70;;
32347;SDS011;18821;44.800;10.326;2023-06-24T06:18:43;11.85;;;5.25;;
32347;SDS011;18821;44.800;10.326;2023-06-24T06:21:09;7.82;;;4.95;;
32347;SDS011;18821;44.800;10.326;2023-06-24T06:23:35;8.95;;;5.35;;
32347;SDS011;18821;44.800;10.326;2023-06-24T06:26:01;7.63;;;4.97;;
32347;SDS011;18821;44.800;10.326;2023-06-24T06:28:27;7.90;;;5.05;;
32347;SDS011;18821;44.800;10.326;2023-06-24T06:30:53;8.80;;;5.47;;
32347;SDS011;18821;44.800;10.326;2023-06-24T06:33:19;7.88;;;4.82;;
32347;SDS011;18821;44.800;10.326;2023-06-24T06:35:45;9.55;;;5.30;;
32347;SDS011;18821;44.800;10.326;2023-06-24T06:38:11;6.28;;;4.63;;
32347;SDS011;18821;44.800;10.326;2023-06-24T06:40:37;7.43;;;4.70;;
32347;SDS011;18821;44.800;10.326;2023-06-24T06:43:03;8.07;;;5.38;;
32347;SDS011;18821;44.800;10.326;2023-06-24T06:45:29;13.13;;;4.85;;
32347;SDS011;18821;44.800;10.326;2023-06-24T06:47:55;8.95;;;5.38;;
32347;SDS011;18821;44.800;10.326;2023-06-24T06:50:21;9.75;;;5.13;;
32347;SDS011;18821;44.800;10.326;2023-06-24T06:52:47;7.07;;;4.63;;
32347;SDS011;18821;44.800;10.326;2023-06-24T06:55:13;8.80;;;4.88;;
32347;SDS011;18821;44.800;10.326;2023-06-24T06:57:39;6.38;;;4.45;;
32347;SDS011;18821;44.800;10.326;2023-06-24T07:00:05;11.13;;;4.60;;
32347;SDS011;18821;44.800;10.326;2023-06-24T07:02:31;14.80;;;5.28;;
32347;SDS011;18821;44.800;10.326;2023-06-24T07:04:57;7.18;;;4.97;;
32347;SDS011;18821;44.800;10.326;2023-06-24T07:07:24;9.02;;;5.75;;
32347;SDS011;18821;44.800;10.326;2023-06-24T07:09:50;12.52;;;5.90;;
32347;SDS011;18821;44.800;10.326;2023-06-24T07:12:16;12.32;;;5.60;;
32347;SDS011;18821;44.800;10.326;2023-06-24T07:14:42;10.65;;;5.10;;
32347;SDS011;18821;44.800;10.326;2023-06-24T07:17:08;8.98;;;5.07;;
32347;SDS011;18821;44.800;10.326;2023-06-24T07:19:34;10.25;;;4.95;;
32347;SDS011;18821;44.800;10.326;2023-06-24T07:22:00;40.63;;;7.60;;
32347;SDS011;18821;44.800;10.326;2023-06-24T07:24:26;26.05;;;5.38;;
32347;SDS011;18821;44.800;10.326;2023-06-24T07:26:52;15.75;;;6.25;;
32347;SDS011;18821;44.800;10.326;2023-06-24T07:29:18;31.10;;;6.50;;
32347;SDS011;18821;44.800;10.326;2023-06-24T07:31:43;16.88;;;5.30;;
32347;SDS011;18821;44.800;10.326;2023-06-24T07:34:09;6.43;;;4.70;;
32347;SDS011;18821;44.800;10.326;2023-06-24T07:36:35;12.52;;;5.90;;
32347;SDS011;18821;44.800;10.326;2023-06-24T07:39:01;12.00;;;5.15;;
32347;SDS011;18821;44.800;10.326;2023-06-24T07:41:27;6.90;;;4.60;;
32347;SDS011;18821;44.800;10.326;2023-06-24T07:43:53;9.30;;;4.47;;
32347;SDS011;18821;44.800;10.326;2023-06-24T07:46:20;9.77;;;4.25;;
32347;SDS011;18821;44.800;10.326;2023-06-24T07:48:46;8.80;;;5.10;;
32347;SDS011;18821;44.800;10.326;2023-06-24T07:51:12;9.45;;;5.28;;
32347;SDS011;18821;44.800;10.326;2023-06-24T07:53:38;12.35;;;4.50;;
32347;SDS011;18821;44.800;10.326;2023-06-24T07:56:04;9.98;;;4.47;;
32347;SDS011;18821;44.800;10.326;2023-06-24T07:58:30;10.57;;;4.90;;
32347;SDS011;18821;44.800;10.326;2023-06-24T08:00:56;8.07;;;4.32;;
32347;SDS011;18821;44.800;10.326;2023-06-24T08:03:22;7.40;;;3.63;;
32347;SDS011;18821;44.800;10.326;2023-06-24T08:05:48;6.50;;;3.55;;
32347;SDS011;18821;44.800;10.326;2023-06-24T08:08:15;7.53;;;3.83;;
32347;SDS011;18821;44.800;10.326;2023-06-24T08:10:41;9.23;;;3.83;;
32347;SDS011;18821;44.800;10.326;2023-06-24T08:13:07;7.38;;;4.35;;
32347;SDS011;18821;44.800;10.326;2023-06-24T08:15:32;7.78;;;4.65;;
32347;SDS011;18821;44.800;10.326;2023-06-24T08:17:58;5.68;;;4.15;;
32347;SDS011;18821;44.800;10.326;2023-06-24T08:20:25;12.63;;;4.20;;
32347;SDS011;18821;44.800;10.326;2023-06-24T08:22:51;5.65;;;4.47;;
32347;SDS011;18821;44.800;10.326;2023-06-24T08:25:17;7.13;;;4.68;;
32347;SDS011;18821;44.800;10.326;2023-06-24T08:27:43;10.48;;;4.82;;
32347;SDS011;18821;44.800;10.326;2023-06-24T08:30:12;9.50;;;4.47;;
32347;SDS011;18821;44.800;10.326;2023-06-24T08:32:40;8.75;;;4.63;;
32347;SDS011;18821;44.800;10.326;2023-06-24T08:35:07;9.23;;;4.55;;
32347;SDS011;18821;44.800;10.326;2023-06-24T08:37:34;8.85;;;4.07;;
32347;SDS011;18821;44.800;10.326;2023-06-24T08:40:01;6.85;;;4.18;;
32347;SDS011;18821;44.800;10.326;2023-06-24T08:42:29;7.88;;;4.10;;
32347;SDS011;18821;44.800;10.326;2023-06-24T08:44:55;8.23;;;4.38;;
32347;SDS011;18821;44.800;10.326;2023-06-24T08:47:23;6.40;;;4.63;;
32347;SDS011;18821;44.800;10.326;2023-06-24T08:49:53;8.55;;;5.05;;
32347;SDS011;18821;44.800;10.326;2023-06-24T08:52:30;7.03;;;4.25;;
32347;SDS011;18821;44.800;10.326;2023-06-24T08:55:00;7.72;;;4.40;;
32347;SDS011;18821;44.800;10.326;2023-06-24T08:57:27;7.70;;;4.22;;
32347;SDS011;18821;44.800;10.326;2023-06-24T08:59:54;10.63;;;4.40;;
32347;SDS011;18821;44.800;10.326;2023-06-24T09:02:20;9.52;;;4.45;;
32347;SDS011;18821;44.800;10.326;2023-06-24T09:04:46;7.85;;;3.90;;
32347;SDS011;18821;44.800;10.326;2023-06-24T09:07:11;12.90;;;5.40;;
32347;SDS011;18821;44.800;10.326;2023-06-24T09:09:42;10.20;;;4.85;;
32347;SDS011;18821;44.800;10.326;2023-06-24T09:12:13;10.18;;;4.32;;
32347;SDS011;18821;44.800;10.326;2023-06-24T09:14:40;5.90;;;4.28;;
32347;SDS011;18821;44.800;10.326;2023-06-24T09:17:06;9.80;;;4.22;;
32347;SDS011;18821;44.800;10.326;2023-06-24T09:19:34;6.30;;;3.90;;
32347;SDS011;18821;44.800;10.326;2023-06-24T09:22:08;11.10;;;4.00;;
32347;SDS011;18821;44.800;10.326;2023-06-24T09:24:41;5.82;;;3.50;;
32347;SDS011;18821;44.800;10.326;2023-06-24T09:27:08;4.95;;;3.42;;
32347;SDS011;18821;44.800;10.326;2023-06-24T09:29:36;6.88;;;3.50;;
32347;SDS011;18821;44.800;10.326;2023-06-24T09:32:05;6.13;;;3.33;;
32347;SDS011;18821;44.800;10.326;2023-06-24T09:34:32;6.68;;;3.58;;
32347;SDS011;18821;44.800;10.326;2023-06-24T09:36:58;10.20;;;3.63;;
32347;SDS011;18821;44.800;10.326;2023-06-24T09:39:26;5.22;;;3.60;;
32347;SDS011;18821;44.800;10.326;2023-06-24T09:41:56;4.38;;;3.67;;
32347;SDS011;18821;44.800;10.326;2023-06-24T09:44:23;7.25;;;3.70;;
32347;SDS011;18821;44.800;10.326;2023-06-24T09:46:49;8.82;;;3.40;;
32347;SDS011;18821;44.800;10.326;2023-06-24T09:49:15;20.00;;;3.50;;
32347;SDS011;18821;44.800;10.326;2023-06-24T09:51:45;4.20;;;2.92;;
32347;SDS011;18821;44.800;10.326;2023-06-24T09:54:13;4.32;;;3.13;;
32347;SDS011;18821;44.800;10.326;2023-06-24T09:56:42;5.78;;;3.53;;
32347;SDS011;18821;44.800;10.326;2023-06-24T09:59:11;6.68;;;3.08;;
32347;SDS011;18821;44.800;10.326;2023-06-24T10:01:39;6.68;;;3.17;;
32347;SDS011;18821;44.800;10.326;2023-06-24T10:04:06;5.07;;;2.67;;
32347;SDS011;18821;44.800;10.326;2023-06-24T10:06:33;4.10;;;2.85;;
32347;SDS011;18821;44.800;10.326;2023-06-24T10:09:00;6.63;;;3.08;;
32347;SDS011;18821;44.800;10.326;2023-06-24T10:11:26;4.60;;;2.80;;
32347;SDS011;18821;44.800;10.326;2023-06-24T10:13:53;4.53;;;3.00;;
32347;SDS011;18821;44.800;10.326;2023-06-24T10:16:20;4.07;;;2.80;;
32347;SDS011;18821;44.800;10.326;2023-06-24T10:18:46;7.05;;;3.08;;
32347;SDS011;18821;44.800;10.326;2023-06-24T10:21:12;4.72;;;2.70;;
32347;SDS011;18821;44.800;10.326;2023-06-24T10:26:25;4.75;;;3.45;;
32347;SDS011;18821;44.800;10.326;2023-06-24T10:37:05;3.33;;;2.92;;
32347;SDS011;18821;44.800;10.326;2023-06-24T10:47:36;6.75;;;2.83;;
32347;SDS011;18821;44.800;10.326;2023-06-24T10:50:04;5.78;;;2.75;;
32347;SDS011;18821;44.800;10.326;2023-06-24T10:52:31;4.80;;;3.30;;
32347;SDS011;18821;44.800;10.326;2023-06-24T10:54:58;4.70;;;3.25;;
32347;SDS011;18821;44.800;10.326;2023-06-24T10:57:25;6.10;;;3.22;;
32347;SDS011;18821;44.800;10.326;2023-06-24T10:59:53;6.68;;;3.50;;
32347;SDS011;18821;44.800;10.326;2023-06-24T11:02:21;4.88;;;3.42;;
32347;SDS011;18821;44.800;10.326;2023-06-24T11:04:48;7.63;;;3.03;;
32347;SDS011;18821;44.800;10.326;2023-06-24T11:07:16;5.28;;;3.13;;
32347;SDS011;18821;44.800;10.326;2023-06-24T11:10:00;8.77;;;3.53;;
32347;SDS011;18821;44.800;10.326;2023-06-24T11:12:34;4.90;;;3.47;;
32347;SDS011;18821;44.800;10.326;2023-06-24T11:15:02;5.47;;;3.90;;
32347;SDS011;18821;44.800;10.326;2023-06-24T11:17:33;4.28;;;3.10;;
32347;SDS011;18821;44.800;10.326;2023-06-24T11:20:00;7.70;;;3.30;;
32347;SDS011;18821;44.800;10.326;2023-06-24T11:22:27;8.48;;;3.40;;
32347;SDS011;18821;44.800;10.326;2023-06-24T11:24:54;4.38;;;3.30;;
32347;SDS011;18821;44.800;10.326;2023-06-24T11:27:28;4.07;;;3.13;;
32347;SDS011;18821;44.800;10.326;2023-06-24T11:29:57;6.35;;;2.92;;
32347;SDS011;18821;44.800;10.326;2023-06-24T11:32:34;5.57;;;2.97;;
32347;SDS011;18821;44.800;10.326;2023-06-24T11:35:00;4.85;;;3.03;;
32347;SDS011;18821;44.800;10.326;2023-06-24T11:37:30;7.20;;;3.92;;
32347;SDS011;18821;44.800;10.326;2023-06-24T11:40:01;4.00;;;3.08;;
32347;SDS011;18821;44.800;10.326;2023-06-24T11:42:30;8.98;;;3.90;;
32347;SDS011;18821;44.800;10.326;2023-06-24T11:45:01;5.47;;;3.53;;
32347;SDS011;18821;44.800;10.326;2023-06-24T11:47:34;10.43;;;3.67;;
32347;SDS011;18821;44.800;10.326;2023-06-24T11:50:01;3.72;;;2.85;;
32347;SDS011;18821;44.800;10.326;2023-06-24T11:52:33;7.28;;;3.25;;
32347;SDS011;18821;44.800;10.326;2023-06-24T11:55:04;3.83;;;2.90;;
32347;SDS011;18821;44.800;10.326;2023-06-24T12:00:14;4.88;;;3.08;;
32347;SDS011;18821;44.800;10.326;2023-06-24T12:02:40;5.50;;;2.85;;
32347;SDS011;18821;44.800;10.326;2023-06-24T12:05:06;4.22;;;2.78;;
32347;SDS011;18821;44.800;10.326;2023-06-24T12:07:32;9.90;;;3.35;;
32347;SDS011;18821;44.800;10.326;2023-06-24T12:09:59;5.07;;;3.30;;
32347;SDS011;18821;44.800;10.326;2023-06-24T12:12:25;6.35;;;3.50;;
32347;SDS011;18821;44.800;10.326;2023-06-24T12:14:51;4.80;;;2.80;;
32347;SDS011;18821;44.800;10.326;2023-06-24T12:17:17;5.35;;;2.95;;
32347;SDS011;18821;44.800;10.326;2023-06-24T12:19:42;7.38;;;3.17;;
32347;SDS011;18821;44.800;10.326;2023-06-24T12:22:09;4.32;;;2.92;;
32347;SDS011;18821;44.800;10.326;2023-06-24T12:24:34;6.13;;;2.63;;
32347;SDS011;18821;44.800;10.326;2023-06-24T12:27:00;3.70;;;2.60;;
32347;SDS011;18821;44.800;10.326;2023-06-24T12:29:26;3.85;;;2.88;;
32347;SDS011;18821;44.800;10.326;2023-06-24T12:31:52;5.38;;;3.30;;
32347;SDS011;18821;44.800;10.326;2023-06-24T12:34:18;4.72;;;3.00;;
32347;SDS011;18821;44.800;10.326;2023-06-24T12:36:46;4.28;;;2.70;;
32347;SDS011;18821;44.800;10.326;2023-06-24T12:39:11;3.35;;;2.60;;
32347;SDS011;18821;44.800;10.326;2023-06-24T12:41:37;5.38;;;3.05;;
32347;SDS011;18821;44.800;10.326;2023-06-24T12:44:03;11.25;;;2.80;;
32347;SDS011;18821;44.800;10.326;2023-06-24T12:46:29;8.18;;;2.97;;
32347;SDS011;18821;44.800;10.326;2023-06-24T12:48:55;5.95;;;3.53;;
32347;SDS011;18821;44.800;10.326;2023-06-24T12:51:21;6.38;;;3.20;;
32347;SDS011;18821;44.800;10.326;2023-06-24T12:53:47;4.45;;;3.40;;
32347;SDS011;18821;44.800;10.326;2023-06-24T12:56:13;6.15;;;3.30;;
32347;SDS011;18821;44.800;10.326;2023-06-24T12:58:39;5.03;;;3.35;;
32347;SDS011;18821;44.800;10.326;2023-06-24T13:01:05;3.95;;;2.53;;
32347;SDS011;18821;44.800;10.326;2023-06-24T13:03:31;6.57;;;2.97;;
32347;SDS011;18821;44.800;10.326;2023-06-24T13:05:57;7.43;;;3.35;;
32347;SDS011;18821;44.800;10.326;2023-06-24T13:08:23;4.25;;;3.33;;
32347;SDS011;18821;44.800;10.326;2023-06-24T13:10:49;4.68;;;3.30;;
32347;SDS011;18821;44.800;10.326;2023-06-24T13:13:15;6.15;;;3.30;;
32347;SDS011;18821;44.800;10.326;2023-06-24T13:15:41;6.15;;;3.25;;
32347;SDS011;18821;44.800;10.326;2023-06-24T13:18:06;7.28;;;3.22;;
32347;SDS011;18821;44.800;10.326;2023-06-24T13:20:32;10.30;;;3.33;;
32347;SDS011;18821;44.800;10.326;2023-06-24T13:22:58;4.88;;;2.70;;
32347;SDS011;18821;44.800;10.326;2023-06-24T13:25:24;3.85;;;2.55;;
32347;SDS011;18821;44.800;10.326;2023-06-24T13:27:50;3.95;;;2.75;;
32347;SDS011;18821;44.800;10.326;2023-06-24T13:30:16;6.20;;;2.78;;
32347;SDS011;18821;44.800;10.326;2023-06-24T13:32:43;4.63;;;2.60;;
32347;SDS011;18821;44.800;10.326;2023-06-24T13:35:09;3.47;;;2.60;;
32347;SDS011;18821;44.800;10.326;2023-06-24T13:37:35;3.33;;;2.28;;
32347;SDS011;18821;44.800;10.326;2023-06-24T13:40:01;3.30;;;2.10;;
32347;SDS011;18821;44.800;10.326;2023-06-24T13:42:28;3.45;;;2.25;;
32347;SDS011;18821;44.800;10.326;2023-06-24T13:44:54;3.20;;;2.20;;
32347;SDS011;18821;44.800;10.326;2023-06-24T13:47:20;5.03;;;3.13;;
32347;SDS011;18821;44.800;10.326;2023-06-24T13:49:46;3.28;;;1.92;;
32347;SDS011;18821;44.800;10.326;2023-06-24T13:52:12;3.95;;;1.88;;
32347;SDS011;18821;44.800;10.326;2023-06-24T13:54:38;4.15;;;2.80;;
32347;SDS011;18821;44.800;10.326;2023-06-24T13:57:04;4.32;;;2.70;;
32347;SDS011;18821;44.800;10.326;2023-06-24T13:59:29;4.43;;;2.85;;
32347;SDS011;18821;44.800;10.326;2023-06-24T14:01:55;4.45;;;2.50;;
32347;SDS011;18821;44.800;10.326;2023-06-24T14:04:22;4.47;;;2.83;;
32347;SDS011;18821;44.800;10.326;2023-06-24T14:06:48;4.20;;;2.40;;
32347;SDS011;18821;44.800;10.326;2023-06-24T14:09:13;6.38;;;2.60;;
32347;SDS011;18821;44.800;10.326;2023-06-24T14:11:39;3.40;;;2.70;;
32347;SDS011;18821;44.800;10.326;2023-06-24T14:14:05;4.43;;;2.83;;
32347;SDS011;18821;44.800;10.326;2023-06-24T14:16:31;4.85;;;2.50;;
32347;SDS011;18821;44.800;10.326;2023-06-24T14:18:57;4.57;;;2.45;;
32347;SDS011;18821;44.800;10.326;2023-06-24T14:21:23;5.60;;;2.47;;
32347;SDS011;18821;44.800;10.326;2023-06-24T14:23:49;5.18;;;2.38;;
32347;SDS011;18821;44.800;10.326;2023-06-24T14:26:15;3.92;;;2.33;;
32347;SDS011;18821;44.800;10.326;2023-06-24T14:28:41;4.47;;;2.67;;
32347;SDS011;18821;44.800;10.326;2023-06-24T14:31:07;5.15;;;2.75;;
32347;SDS011;18821;44.800;10.326;2023-06-24T14:33:33;4.88;;;2.55;;
32347;SDS011;18821;44.800;10.326;2023-06-24T14:35:59;3.53;;;2.22;;
32347;SDS011;18821;44.800;10.326;2023-06-24T14:38:25;5.03;;;2.78;;
32347;SDS011;18821;44.800;10.326;2023-06-24T14:40:51;3.60;;;2.65;;
32347;SDS011;18821;44.800;10.326;2023-06-24T14:43:17;3.13;;;2.58;;
32347;SDS011;18821;44.800;10.326;2023-06-24T14:45:44;4.18;;;2.45;;
32347;SDS011;18821;44.800;10.326;2023-06-24T14:48:10;3.78;;;2.10;;
32347;SDS011;18821;44.800;10.326;2023-06-24T14:50:36;7.10;;;2.92;;
32347;SDS011;18821;44.800;10.326;2023-06-24T14:53:02;4.90;;;2.28;;
32347;SDS011;18821;44.800;10.326;2023-06-24T14:55:28;2.60;;;2.30;;